sensor_id;sensor_type;location;lat;lon;timestamp;temperature;humidity
8332;DHT22;4203;48.144;14.118;2023-09-19T00:00:17;16.60;99.90
8332;DHT22;4203;48.144;14.118;2023-09-19T00:02:46;16.50;99.90
8332;DHT22;4203;48.144;14.118;2023-09-19T00:05:18;16.60;99.90
8332;DHT22;4203;48.144;14.118;2023-09-19T00:07:50;16.60;99.90
8332;DHT22;4203;48.144;14.118;2023-09-19T00:10:19;16.60;99.90
8332;DHT22;4203;48.144;14.118;2023-09-19T00:12:50;16.60;99.90
8332;DHT22;4203;48.144;14.118;2023-09-19T00:15:21;16.50;99.90
8332;DHT22;4203;48.144;14.118;2023-09-19T00:17:48;16.50;99.90
8332;DHT22;4203;48.144;14.118;2023-09-19T00:20:18;16.60;99.90
8332;DHT22;4203;48.144;14.118;2023-09-19T00:22:47;16.60;99.90
8332;DHT22;4203;48.144;14.118;2023-09-19T00:25:15;16.60;99.90
8332;DHT22;4203;48.144;14.118;2023-09-19T00:27:42;16.60;99.90
8332;DHT22;4203;48.144;14.118;2023-09-19T00:30:13;16.70;99.90
8332;DHT22;4203;48.144;14.118;2023-09-19T00:32:45;16.70;99.90
8332;DHT22;4203;48.144;14.118;2023-09-19T00:35:13;16.70;99.90
8332;DHT22;4203;48.144;14.118;2023-09-19T00:37:41;16.70;99.90
8332;DHT22;4203;48.144;14.118;2023-09-19T00:40:09;16.70;99.90
8332;DHT22;4203;48.144;14.118;2023-09-19T00:42:38;16.70;99.90
8332;DHT22;4203;48.144;14.118;2023-09-19T00:45:07;16.70;99.90
8332;DHT22;4203;48.144;14.118;2023-09-19T00:47:38;16.70;99.90
8332;DHT22;4203;48.144;14.118;2023-09-19T00:50:08;16.70;99.90
8332;DHT22;4203;48.144;14.118;2023-09-19T00:52:37;16.70;99.90
8332;DHT22;4203;48.144;14.118;2023-09-19T00:55:06;16.70;99.90
8332;DHT22;4203;48.144;14.118;2023-09-19T00:57:34;16.70;99.90
8332;DHT22;4203;48.144;14.118;2023-09-19T01:00:05;16.60;99.90
8332;DHT22;4203;48.144;14.118;2023-09-19T01:02:33;16.60;99.90
8332;DHT22;4203;48.144;14.118;2023-09-19T01:05:02;16.60;99.90
8332;DHT22;4203;48.144;14.118;2023-09-19T01:07:31;16.50;99.90
8332;DHT22;4203;48.144;14.118;2023-09-19T01:09:59;16.50;99.90
8332;DHT22;4203;48.144;14.118;2023-09-19T01:12:33;16.50;99.90
8332;DHT22;4203;48.144;14.118;2023-09-19T01:15:10;16.40;99.90
8332;DHT22;4203;48.144;14.118;2023-09-19T01:17:44;16.30;99.90
8332;DHT22;4203;48.144;14.118;2023-09-19T01:20:28;16.30;99.90
8332;DHT22;4203;48.144;14.118;2023-09-19T01:23:09;16.30;99.90
8332;DHT22;4203;48.144;14.118;2023-09-19T01:26:05;16.30;99.90
8332;DHT22;4203;48.144;14.118;2023-09-19T01:28:43;16.20;99.90
8332;DHT22;4203;48.144;14.118;2023-09-19T01:31:15;16.10;99.90
8332;DHT22;4203;48.144;14.118;2023-09-19T01:33:58;16.10;99.90
8332;DHT22;4203;48.144;14.118;2023-09-19T01:36:31;16.10;99.90
8332;DHT22;4203;48.144;14.118;2023-09-19T01:39:00;16.10;99.90
8332;DHT22;4203;48.144;14.118;2023-09-19T01:41:49;16.00;99.90
8332;DHT22;4203;48.144;14.118;2023-09-19T01:44:29;16.00;99.90
8332;DHT22;4203;48.144;14.118;2023-09-19T01:47:06;15.90;99.90
8332;DHT22;4203;48.144;14.118;2023-09-19T01:49:44;15.90;99.90
8332;DHT22;4203;48.144;14.118;2023-09-19T01:52:13;15.90;99.90
8332;DHT22;4203;48.144;14.118;2023-09-19T01:54:50;15.90;99.90
8332;DHT22;4203;48.144;14.118;2023-09-19T01:57:22;15.80;99.90
8332;DHT22;4203;48.144;14.118;2023-09-19T01:59:59;15.90;99.90
8332;DHT22;4203;48.144;14.118;2023-09-19T02:02:34;15.90;99.90
8332;DHT22;4203;48.144;14.118;2023-09-19T02:05:01;15.90;99.90
8332;DHT22;4203;48.144;14.118;2023-09-19T02:07:29;15.90;99.90
8332;DHT22;4203;48.144;14.118;2023-09-19T02:09:57;15.90;99.90
8332;DHT22;4203;48.144;14.118;2023-09-19T02:12:25;15.90;99.90
8332;DHT22;4203;48.144;14.118;2023-09-19T02:14:54;15.90;99.90
8332;DHT22;4203;48.144;14.118;2023-09-19T02:17:22;15.90;99.90
8332;DHT22;4203;48.144;14.118;2023-09-19T02:19:53;15.90;99.90
8332;DHT22;4203;48.144;14.118;2023-09-19T02:22:20;15.90;99.90
8332;DHT22;4203;48.144;14.118;2023-09-19T02:24:48;15.90;99.90
8332;DHT22;4203;48.144;14.118;2023-09-19T02:27:16;15.90;99.90
8332;DHT22;4203;48.144;14.118;2023-09-19T02:29:44;15.90;99.90
8332;DHT22;4203;48.144;14.118;2023-09-19T02:32:11;15.90;99.90
8332;DHT22;4203;48.144;14.118;2023-09-19T02:34:38;15.90;99.90
8332;DHT22;4203;48.144;14.118;2023-09-19T02:37:07;15.90;99.90
8332;DHT22;4203;48.144;14.118;2023-09-19T02:39:35;15.90;99.90
8332;DHT22;4203;48.144;14.118;2023-09-19T02:42:03;15.90;99.90
8332;DHT22;4203;48.144;14.118;2023-09-19T02:44:31;15.80;99.90
8332;DHT22;4203;48.144;14.118;2023-09-19T02:46:59;15.80;99.90
8332;DHT22;4203;48.144;14.118;2023-09-19T02:49:27;15.70;99.90
8332;DHT22;4203;48.144;14.118;2023-09-19T02:51:54;15.70;99.90
8332;DHT22;4203;48.144;14.118;2023-09-19T02:54:26;15.70;99.90
8332;DHT22;4203;48.144;14.118;2023-09-19T02:56:54;15.70;99.90
8332;DHT22;4203;48.144;14.118;2023-09-19T02:59:21;15.70;99.90
8332;DHT22;4203;48.144;14.118;2023-09-19T03:01:50;15.70;99.90
8332;DHT22;4203;48.144;14.118;2023-09-19T03:04:20;15.70;99.90
8332;DHT22;4203;48.144;14.118;2023-09-19T03:06:47;15.70;99.90
8332;DHT22;4203;48.144;14.118;2023-09-19T03:09:16;15.60;99.90
8332;DHT22;4203;48.144;14.118;2023-09-19T03:11:46;15.60;99.90
8332;DHT22;4203;48.144;14.118;2023-09-19T03:14:13;15.60;99.90
8332;DHT22;4203;48.144;14.118;2023-09-19T03:16:41;15.50;99.90
8332;DHT22;4203;48.144;14.118;2023-09-19T03:19:10;15.50;99.90
8332;DHT22;4203;48.144;14.118;2023-09-19T03:21:37;15.40;99.90
8332;DHT22;4203;48.144;14.118;2023-09-19T03:24:05;15.30;99.90
8332;DHT22;4203;48.144;14.118;2023-09-19T03:26:33;15.30;99.90
8332;DHT22;4203;48.144;14.118;2023-09-19T03:29:05;15.30;99.90
8332;DHT22;4203;48.144;14.118;2023-09-19T03:31:34;15.20;99.90
8332;DHT22;4203;48.144;14.118;2023-09-19T03:34:03;15.20;99.90
8332;DHT22;4203;48.144;14.118;2023-09-19T03:36:31;15.10;99.90
8332;DHT22;4203;48.144;14.118;2023-09-19T03:39:00;15.10;99.90
8332;DHT22;4203;48.144;14.118;2023-09-19T03:41:30;15.10;99.90
8332;DHT22;4203;48.144;14.118;2023-09-19T03:43:59;15.10;99.90
8332;DHT22;4203;48.144;14.118;2023-09-19T03:46:28;15.20;99.90
8332;DHT22;4203;48.144;14.118;2023-09-19T03:48:55;15.20;99.90
8332;DHT22;4203;48.144;14.118;2023-09-19T03:51:23;15.20;99.90
8332;DHT22;4203;48.144;14.118;2023-09-19T03:53:50;15.20;99.90
8332;DHT22;4203;48.144;14.118;2023-09-19T03:56:17;15.20;99.90
8332;DHT22;4203;48.144;14.118;2023-09-19T03:58:44;15.20;99.90
8332;DHT22;4203;48.144;14.118;2023-09-19T04:01:11;15.20;99.90
8332;DHT22;4203;48.144;14.118;2023-09-19T04:03:40;15.20;99.90
8332;DHT22;4203;48.144;14.118;2023-09-19T04:06:14;15.20;99.90
8332;DHT22;4203;48.144;14.118;2023-09-19T04:08:42;15.20;99.90
8332;DHT22;4203;48.144;14.118;2023-09-19T04:11:09;15.20;99.90
8332;DHT22;4203;48.144;14.118;2023-09-19T04:13:37;15.20;99.90
8332;DHT22;4203;48.144;14.118;2023-09-19T04:16:04;15.20;99.90
8332;DHT22;4203;48.144;14.118;2023-09-19T04:18:32;15.20;99.90
8332;DHT22;4203;48.144;14.118;2023-09-19T04:21:04;15.20;99.90
8332;DHT22;4203;48.144;14.118;2023-09-19T04:23:31;15.30;99.90
8332;DHT22;4203;48.144;14.118;2023-09-19T04:25:58;15.20;99.90
8332;DHT22;4203;48.144;14.118;2023-09-19T04:28:26;15.30;99.90
8332;DHT22;4203;48.144;14.118;2023-09-19T04:30:53;15.20;99.90
8332;DHT22;4203;48.144;14.118;2023-09-19T04:33:21;15.30;99.90
8332;DHT22;4203;48.144;14.118;2023-09-19T04:35:49;15.30;99.90
8332;DHT22;4203;48.144;14.118;2023-09-19T04:38:18;15.30;99.90
8332;DHT22;4203;48.144;14.118;2023-09-19T04:40:46;15.20;99.90
8332;DHT22;4203;48.144;14.118;2023-09-19T04:43:13;15.20;99.90
8332;DHT22;4203;48.144;14.118;2023-09-19T04:45:41;15.20;99.90
8332;DHT22;4203;48.144;14.118;2023-09-19T04:48:08;15.20;99.90
8332;DHT22;4203;48.144;14.118;2023-09-19T04:50:36;15.20;99.90
8332;DHT22;4203;48.144;14.118;2023-09-19T04:53:04;15.20;99.90
8332;DHT22;4203;48.144;14.118;2023-09-19T04:55:34;15.20;99.90
8332;DHT22;4203;48.144;14.118;2023-09-19T04:58:02;15.20;99.90
8332;DHT22;4203;48.144;14.118;2023-09-19T05:00:29;15.20;99.90
8332;DHT22;4203;48.144;14.118;2023-09-19T05:03:00;15.30;99.90
8332;DHT22;4203;48.144;14.118;2023-09-19T05:05:29;15.30;99.90
8332;DHT22;4203;48.144;14.118;2023-09-19T05:07:56;15.40;99.90
8332;DHT22;4203;48.144;14.118;2023-09-19T05:10:24;15.40;99.90
8332;DHT22;4203;48.144;14.118;2023-09-19T05:12:54;15.40;99.90
8332;DHT22;4203;48.144;14.118;2023-09-19T05:15:21;15.50;99.90
8332;DHT22;4203;48.144;14.118;2023-09-19T05:17:49;15.60;99.90
8332;DHT22;4203;48.144;14.118;2023-09-19T05:20:17;15.60;99.90
8332;DHT22;4203;48.144;14.118;2023-09-19T05:22:56;15.70;99.90
8332;DHT22;4203;48.144;14.118;2023-09-19T05:25:24;15.70;99.90
8332;DHT22;4203;48.144;14.118;2023-09-19T05:27:55;15.80;99.90
8332;DHT22;4203;48.144;14.118;2023-09-19T05:30:23;15.80;99.90
8332;DHT22;4203;48.144;14.118;2023-09-19T05:32:50;15.90;99.90
8332;DHT22;4203;48.144;14.118;2023-09-19T05:35:18;15.90;99.90
8332;DHT22;4203;48.144;14.118;2023-09-19T05:37:47;15.90;99.90
8332;DHT22;4203;48.144;14.118;2023-09-19T05:40:16;15.90;99.90
8332;DHT22;4203;48.144;14.118;2023-09-19T05:42:43;16.00;99.90
8332;DHT22;4203;48.144;14.118;2023-09-19T05:45:13;16.00;99.90
8332;DHT22;4203;48.144;14.118;2023-09-19T05:47:44;16.00;99.90
8332;DHT22;4203;48.144;14.118;2023-09-19T05:50:12;16.00;99.90
8332;DHT22;4203;48.144;14.118;2023-09-19T05:52:40;16.00;99.90
8332;DHT22;4203;48.144;14.118;2023-09-19T05:55:10;16.00;99.90
8332;DHT22;4203;48.144;14.118;2023-09-19T05:57:37;16.10;99.90
8332;DHT22;4203;48.144;14.118;2023-09-19T06:00:06;16.10;99.90
8332;DHT22;4203;48.144;14.118;2023-09-19T06:02:38;16.20;99.90
8332;DHT22;4203;48.144;14.118;2023-09-19T06:05:06;16.20;99.90
8332;DHT22;4203;48.144;14.118;2023-09-19T06:07:36;16.20;99.90
8332;DHT22;4203;48.144;14.118;2023-09-19T06:10:03;16.20;99.90
8332;DHT22;4203;48.144;14.118;2023-09-19T06:12:33;16.30;99.90
8332;DHT22;4203;48.144;14.118;2023-09-19T06:15:03;16.30;99.90
8332;DHT22;4203;48.144;14.118;2023-09-19T06:17:34;16.40;99.90
8332;DHT22;4203;48.144;14.118;2023-09-19T06:20:06;16.50;99.90
8332;DHT22;4203;48.144;14.118;2023-09-19T06:22:38;16.50;99.90
8332;DHT22;4203;48.144;14.118;2023-09-19T06:25:07;16.70;99.90
8332;DHT22;4203;48.144;14.118;2023-09-19T06:27:37;16.70;99.90
8332;DHT22;4203;48.144;14.118;2023-09-19T06:30:06;16.80;99.90
8332;DHT22;4203;48.144;14.118;2023-09-19T06:32:34;16.80;99.90
8332;DHT22;4203;48.144;14.118;2023-09-19T06:35:01;16.80;99.90
8332;DHT22;4203;48.144;14.118;2023-09-19T06:37:30;16.80;99.90
8332;DHT22;4203;48.144;14.118;2023-09-19T06:39:58;16.80;99.90
8332;DHT22;4203;48.144;14.118;2023-09-19T06:42:25;16.80;99.90
8332;DHT22;4203;48.144;14.118;2023-09-19T06:44:54;16.90;99.90
8332;DHT22;4203;48.144;14.118;2023-09-19T06:47:21;17.00;99.90
8332;DHT22;4203;48.144;14.118;2023-09-19T06:49:51;17.10;99.90
8332;DHT22;4203;48.144;14.118;2023-09-19T06:52:18;17.20;99.90
8332;DHT22;4203;48.144;14.118;2023-09-19T06:54:49;17.20;99.90
8332;DHT22;4203;48.144;14.118;2023-09-19T06:57:18;17.30;99.90
8332;DHT22;4203;48.144;14.118;2023-09-19T06:59:45;17.40;99.90
8332;DHT22;4203;48.144;14.118;2023-09-19T07:02:12;17.40;99.90
8332;DHT22;4203;48.144;14.118;2023-09-19T07:04:40;17.50;99.90
8332;DHT22;4203;48.144;14.118;2023-09-19T07:07:07;17.50;99.90
8332;DHT22;4203;48.144;14.118;2023-09-19T07:09:36;17.60;99.90
8332;DHT22;4203;48.144;14.118;2023-09-19T07:12:06;17.60;99.90
8332;DHT22;4203;48.144;14.118;2023-09-19T07:14:33;17.60;99.90
8332;DHT22;4203;48.144;14.118;2023-09-19T07:17:00;17.70;99.90
8332;DHT22;4203;48.144;14.118;2023-09-19T07:19:29;17.80;99.90
8332;DHT22;4203;48.144;14.118;2023-09-19T07:21:57;17.80;99.90
8332;DHT22;4203;48.144;14.118;2023-09-19T07:24:25;17.90;99.90
8332;DHT22;4203;48.144;14.118;2023-09-19T07:26:54;18.10;99.90
8332;DHT22;4203;48.144;14.118;2023-09-19T07:29:23;18.10;99.90
8332;DHT22;4203;48.144;14.118;2023-09-19T07:31:52;18.20;99.90
8332;DHT22;4203;48.144;14.118;2023-09-19T07:34:19;18.30;99.90
8332;DHT22;4203;48.144;14.118;2023-09-19T07:36:48;18.40;99.90
8332;DHT22;4203;48.144;14.118;2023-09-19T07:39:15;18.40;99.90
8332;DHT22;4203;48.144;14.118;2023-09-19T07:41:43;18.30;99.90
8332;DHT22;4203;48.144;14.118;2023-09-19T07:44:10;18.30;99.90
8332;DHT22;4203;48.144;14.118;2023-09-19T07:46:39;18.20;99.90
8332;DHT22;4203;48.144;14.118;2023-09-19T07:49:06;18.20;99.90
8332;DHT22;4203;48.144;14.118;2023-09-19T07:51:34;18.10;99.90
8332;DHT22;4203;48.144;14.118;2023-09-19T07:54:02;18.00;99.90
8332;DHT22;4203;48.144;14.118;2023-09-19T07:56:30;18.00;99.90
8332;DHT22;4203;48.144;14.118;2023-09-19T07:58:57;18.00;99.90
8332;DHT22;4203;48.144;14.118;2023-09-19T08:01:24;18.00;99.90
8332;DHT22;4203;48.144;14.118;2023-09-19T08:03:54;18.10;99.90
8332;DHT22;4203;48.144;14.118;2023-09-19T08:06:21;18.20;99.90
8332;DHT22;4203;48.144;14.118;2023-09-19T08:08:51;18.20;99.90
8332;DHT22;4203;48.144;14.118;2023-09-19T08:11:20;18.30;99.90
8332;DHT22;4203;48.144;14.118;2023-09-19T08:13:50;18.40;99.90
8332;DHT22;4203;48.144;14.118;2023-09-19T08:16:18;18.60;99.90
8332;DHT22;4203;48.144;14.118;2023-09-19T08:18:48;18.80;99.90
8332;DHT22;4203;48.144;14.118;2023-09-19T08:21:22;19.00;99.90
8332;DHT22;4203;48.144;14.118;2023-09-19T08:23:50;19.20;99.90
8332;DHT22;4203;48.144;14.118;2023-09-19T08:26:17;19.40;99.90
8332;DHT22;4203;48.144;14.118;2023-09-19T08:28:45;19.70;99.90
8332;DHT22;4203;48.144;14.118;2023-09-19T08:31:14;19.70;99.90
8332;DHT22;4203;48.144;14.118;2023-09-19T08:33:43;19.60;99.90
8332;DHT22;4203;48.144;14.118;2023-09-19T08:36:17;19.60;99.90
8332;DHT22;4203;48.144;14.118;2023-09-19T08:38:45;19.50;99.90
8332;DHT22;4203;48.144;14.118;2023-09-19T08:41:12;19.40;99.90
8332;DHT22;4203;48.144;14.118;2023-09-19T08:43:40;19.40;99.90
8332;DHT22;4203;48.144;14.118;2023-09-19T08:46:10;19.30;99.90
8332;DHT22;4203;48.144;14.118;2023-09-19T08:48:45;19.30;99.90
8332;DHT22;4203;48.144;14.118;2023-09-19T08:51:18;19.40;99.90
8332;DHT22;4203;48.144;14.118;2023-09-19T08:53:51;19.50;99.90
8332;DHT22;4203;48.144;14.118;2023-09-19T08:56:19;19.70;99.90
8332;DHT22;4203;48.144;14.118;2023-09-19T08:58:53;19.70;99.90
8332;DHT22;4203;48.144;14.118;2023-09-19T09:01:21;19.80;99.90
8332;DHT22;4203;48.144;14.118;2023-09-19T09:03:51;19.80;99.90
8332;DHT22;4203;48.144;14.118;2023-09-19T09:06:20;19.60;99.90
8332;DHT22;4203;48.144;14.118;2023-09-19T09:08:48;19.60;99.90
8332;DHT22;4203;48.144;14.118;2023-09-19T09:11:17;19.60;99.90
8332;DHT22;4203;48.144;14.118;2023-09-19T09:13:44;19.50;99.90
8332;DHT22;4203;48.144;14.118;2023-09-19T09:16:12;19.50;99.90
8332;DHT22;4203;48.144;14.118;2023-09-19T09:18:39;19.40;99.90
8332;DHT22;4203;48.144;14.118;2023-09-19T09:21:07;19.30;99.90
8332;DHT22;4203;48.144;14.118;2023-09-19T09:23:34;19.40;99.90
8332;DHT22;4203;48.144;14.118;2023-09-19T09:26:02;19.40;99.90
8332;DHT22;4203;48.144;14.118;2023-09-19T09:28:32;19.50;99.90
8332;DHT22;4203;48.144;14.118;2023-09-19T09:31:01;19.70;99.90
8332;DHT22;4203;48.144;14.118;2023-09-19T09:33:34;19.90;99.90
8332;DHT22;4203;48.144;14.118;2023-09-19T09:36:02;20.00;99.90
8332;DHT22;4203;48.144;14.118;2023-09-19T09:38:43;20.20;99.90
8332;DHT22;4203;48.144;14.118;2023-09-19T09:41:15;20.40;99.90
8332;DHT22;4203;48.144;14.118;2023-09-19T09:43:53;20.60;99.90
8332;DHT22;4203;48.144;14.118;2023-09-19T09:46:21;20.90;99.90
8332;DHT22;4203;48.144;14.118;2023-09-19T09:49:06;21.20;99.90
8332;DHT22;4203;48.144;14.118;2023-09-19T09:51:51;21.30;99.90
8332;DHT22;4203;48.144;14.118;2023-09-19T09:54:27;21.20;99.90
8332;DHT22;4203;48.144;14.118;2023-09-19T09:57:06;21.00;99.90
8332;DHT22;4203;48.144;14.118;2023-09-19T09:59:50;20.80;99.90
8332;DHT22;4203;48.144;14.118;2023-09-19T10:02:19;20.60;99.90
8332;DHT22;4203;48.144;14.118;2023-09-19T10:04:52;20.60;99.90
8332;DHT22;4203;48.144;14.118;2023-09-19T10:07:28;20.60;99.90
8332;DHT22;4203;48.144;14.118;2023-09-19T10:09:59;20.90;99.90
8332;DHT22;4203;48.144;14.118;2023-09-19T10:12:40;21.50;99.90
8332;DHT22;4203;48.144;14.118;2023-09-19T10:15:11;21.90;99.90
8332;DHT22;4203;48.144;14.118;2023-09-19T10:17:43;22.30;99.90
8332;DHT22;4203;48.144;14.118;2023-09-19T10:20:15;23.00;99.90
8332;DHT22;4203;48.144;14.118;2023-09-19T10:23:00;23.50;99.90
8332;DHT22;4203;48.144;14.118;2023-09-19T10:25:28;24.00;99.90
8332;DHT22;4203;48.144;14.118;2023-09-19T10:28:00;24.60;99.90
8332;DHT22;4203;48.144;14.118;2023-09-19T10:30:29;25.00;99.90
8332;DHT22;4203;48.144;14.118;2023-09-19T10:33:01;25.30;99.90
8332;DHT22;4203;48.144;14.118;2023-09-19T10:35:29;25.60;99.90
8332;DHT22;4203;48.144;14.118;2023-09-19T10:37:59;26.00;99.90
8332;DHT22;4203;48.144;14.118;2023-09-19T10:40:27;26.20;99.90
8332;DHT22;4203;48.144;14.118;2023-09-19T10:43:01;26.80;99.90
8332;DHT22;4203;48.144;14.118;2023-09-19T10:45:31;27.70;99.90
8332;DHT22;4203;48.144;14.118;2023-09-19T10:47:59;28.30;99.90
8332;DHT22;4203;48.144;14.118;2023-09-19T10:50:30;28.70;99.90
8332;DHT22;4203;48.144;14.118;2023-09-19T10:53:01;28.30;99.90
8332;DHT22;4203;48.144;14.118;2023-09-19T10:55:31;27.70;99.90
8332;DHT22;4203;48.144;14.118;2023-09-19T10:58:03;26.70;99.90
8332;DHT22;4203;48.144;14.118;2023-09-19T11:00:53;26.00;99.90
8332;DHT22;4203;48.144;14.118;2023-09-19T11:03:22;25.10;99.90
8332;DHT22;4203;48.144;14.118;2023-09-19T11:06:12;24.50;99.90
8332;DHT22;4203;48.144;14.118;2023-09-19T11:08:52;24.40;99.90
8332;DHT22;4203;48.144;14.118;2023-09-19T11:11:45;25.00;99.90
8332;DHT22;4203;48.144;14.118;2023-09-19T11:14:40;25.10;99.90
8332;DHT22;4203;48.144;14.118;2023-09-19T11:17:41;24.80;99.90
8332;DHT22;4203;48.144;14.118;2023-09-19T11:20:23;24.50;99.90
8332;DHT22;4203;48.144;14.118;2023-09-19T11:23:23;24.20;99.90
8332;DHT22;4203;48.144;14.118;2023-09-19T11:25:55;23.90;99.90
8332;DHT22;4203;48.144;14.118;2023-09-19T11:28:33;24.10;99.90
8332;DHT22;4203;48.144;14.118;2023-09-19T11:34:46;26.10;99.90
8332;DHT22;4203;48.144;14.118;2023-09-19T11:40:45;27.60;99.90
8332;DHT22;4203;48.144;14.118;2023-09-19T11:43:31;28.50;99.90
8332;DHT22;4203;48.144;14.118;2023-09-19T11:46:08;28.40;99.90
8332;DHT22;4203;48.144;14.118;2023-09-19T11:48:35;27.90;99.90
8332;DHT22;4203;48.144;14.118;2023-09-19T11:51:14;27.00;99.90
8332;DHT22;4203;48.144;14.118;2023-09-19T11:53:45;26.10;99.90
8332;DHT22;4203;48.144;14.118;2023-09-19T11:56:16;25.40;99.90
8332;DHT22;4203;48.144;14.118;2023-09-19T11:58:44;24.80;99.90
8332;DHT22;4203;48.144;14.118;2023-09-19T12:01:22;24.30;99.90
8332;DHT22;4203;48.144;14.118;2023-09-19T12:03:54;23.70;99.90
8332;DHT22;4203;48.144;14.118;2023-09-19T12:06:23;22.90;99.90
8332;DHT22;4203;48.144;14.118;2023-09-19T12:08:51;22.20;99.90
8332;DHT22;4203;48.144;14.118;2023-09-19T12:11:21;21.60;99.90
8332;DHT22;4203;48.144;14.118;2023-09-19T12:13:50;21.20;99.90
8332;DHT22;4203;48.144;14.118;2023-09-19T12:16:21;20.90;99.90
8332;DHT22;4203;48.144;14.118;2023-09-19T12:18:49;20.80;99.90
8332;DHT22;4203;48.144;14.118;2023-09-19T12:21:24;20.70;99.90
8332;DHT22;4203;48.144;14.118;2023-09-19T12:24:13;20.60;99.90
8332;DHT22;4203;48.144;14.118;2023-09-19T12:26:45;20.70;99.90
8332;DHT22;4203;48.144;14.118;2023-09-19T12:29:18;21.00;99.90
8332;DHT22;4203;48.144;14.118;2023-09-19T12:31:53;21.30;99.90
8332;DHT22;4203;48.144;14.118;2023-09-19T12:34:24;21.70;99.90
8332;DHT22;4203;48.144;14.118;2023-09-19T12:37:13;22.30;99.90
8332;DHT22;4203;48.144;14.118;2023-09-19T12:39:49;23.60;99.90
8332;DHT22;4203;48.144;14.118;2023-09-19T12:42:19;24.80;99.90
8332;DHT22;4203;48.144;14.118;2023-09-19T12:44:47;25.70;99.90
8332;DHT22;4203;48.144;14.118;2023-09-19T12:47:19;26.00;99.90
8332;DHT22;4203;48.144;14.118;2023-09-19T12:50:08;26.20;99.90
8332;DHT22;4203;48.144;14.118;2023-09-19T12:52:41;26.50;99.90
8332;DHT22;4203;48.144;14.118;2023-09-19T12:55:23;26.40;99.90
8332;DHT22;4203;48.144;14.118;2023-09-19T12:58:07;26.70;99.90
8332;DHT22;4203;48.144;14.118;2023-09-19T13:00:37;27.00;99.90
8332;DHT22;4203;48.144;14.118;2023-09-19T13:03:16;27.30;99.90
8332;DHT22;4203;48.144;14.118;2023-09-19T13:05:55;27.50;99.90
8332;DHT22;4203;48.144;14.118;2023-09-19T13:08:27;27.50;99.90
8332;DHT22;4203;48.144;14.118;2023-09-19T13:11:06;27.70;99.90
8332;DHT22;4203;48.144;14.118;2023-09-19T13:13:36;28.00;99.90
8332;DHT22;4203;48.144;14.118;2023-09-19T13:16:04;28.40;99.90
8332;DHT22;4203;48.144;14.118;2023-09-19T13:18:46;28.60;99.90
8332;DHT22;4203;48.144;14.118;2023-09-19T13:21:17;28.50;99.90
8332;DHT22;4203;48.144;14.118;2023-09-19T13:23:56;28.40;99.90
8332;DHT22;4203;48.144;14.118;2023-09-19T13:26:25;28.10;99.90
8332;DHT22;4203;48.144;14.118;2023-09-19T13:28:53;27.80;99.90
8332;DHT22;4203;48.144;14.118;2023-09-19T13:31:20;27.40;99.90
8332;DHT22;4203;48.144;14.118;2023-09-19T13:33:50;27.20;99.90
8332;DHT22;4203;48.144;14.118;2023-09-19T13:36:18;27.00;99.90
8332;DHT22;4203;48.144;14.118;2023-09-19T13:38:45;27.00;99.90
8332;DHT22;4203;48.144;14.118;2023-09-19T13:41:14;26.60;99.90
8332;DHT22;4203;48.144;14.118;2023-09-19T13:43:42;26.30;99.90
8332;DHT22;4203;48.144;14.118;2023-09-19T13:46:13;25.50;99.90
8332;DHT22;4203;48.144;14.118;2023-09-19T13:48:42;24.70;99.90
8332;DHT22;4203;48.144;14.118;2023-09-19T13:51:10;24.00;99.90
8332;DHT22;4203;48.144;14.118;2023-09-19T13:53:38;23.50;99.90
8332;DHT22;4203;48.144;14.118;2023-09-19T13:56:05;23.00;99.90
8332;DHT22;4203;48.144;14.118;2023-09-19T13:58:32;22.90;99.90
8332;DHT22;4203;48.144;14.118;2023-09-19T14:01:00;22.80;99.90
8332;DHT22;4203;48.144;14.118;2023-09-19T14:03:28;22.80;99.90
8332;DHT22;4203;48.144;14.118;2023-09-19T14:05:57;23.00;99.90
8332;DHT22;4203;48.144;14.118;2023-09-19T14:08:26;23.10;99.90
8332;DHT22;4203;48.144;14.118;2023-09-19T14:10:53;23.30;99.90
8332;DHT22;4203;48.144;14.118;2023-09-19T14:13:20;23.40;99.90
8332;DHT22;4203;48.144;14.118;2023-09-19T14:15:47;23.50;99.90
8332;DHT22;4203;48.144;14.118;2023-09-19T14:18:15;23.30;99.90
8332;DHT22;4203;48.144;14.118;2023-09-19T14:20:42;23.10;99.90
8332;DHT22;4203;48.144;14.118;2023-09-19T14:23:09;22.90;99.90
8332;DHT22;4203;48.144;14.118;2023-09-19T14:25:39;22.70;99.90
8332;DHT22;4203;48.144;14.118;2023-09-19T14:28:06;22.40;99.90
8332;DHT22;4203;48.144;14.118;2023-09-19T14:30:34;22.20;99.90
8332;DHT22;4203;48.144;14.118;2023-09-19T14:33:03;22.00;99.90
8332;DHT22;4203;48.144;14.118;2023-09-19T14:35:30;21.80;99.90
8332;DHT22;4203;48.144;14.118;2023-09-19T14:37:57;21.70;99.90
8332;DHT22;4203;48.144;14.118;2023-09-19T14:40:25;21.50;99.90
8332;DHT22;4203;48.144;14.118;2023-09-19T14:42:54;21.40;99.90
8332;DHT22;4203;48.144;14.118;2023-09-19T14:45:21;21.30;99.90
8332;DHT22;4203;48.144;14.118;2023-09-19T14:47:50;21.30;99.90
8332;DHT22;4203;48.144;14.118;2023-09-19T14:50:20;21.10;99.90
8332;DHT22;4203;48.144;14.118;2023-09-19T14:52:48;21.10;99.90
8332;DHT22;4203;48.144;14.118;2023-09-19T14:55:16;21.00;99.90
8332;DHT22;4203;48.144;14.118;2023-09-19T14:57:49;20.90;99.90
8332;DHT22;4203;48.144;14.118;2023-09-19T15:00:19;20.90;99.90
8332;DHT22;4203;48.144;14.118;2023-09-19T15:02:49;20.90;99.90
8332;DHT22;4203;48.144;14.118;2023-09-19T15:05:16;20.90;99.90
8332;DHT22;4203;48.144;14.118;2023-09-19T15:07:44;20.90;99.90
8332;DHT22;4203;48.144;14.118;2023-09-19T15:10:11;21.00;99.90
8332;DHT22;4203;48.144;14.118;2023-09-19T15:12:39;21.10;99.90
8332;DHT22;4203;48.144;14.118;2023-09-19T15:15:06;21.20;99.90
8332;DHT22;4203;48.144;14.118;2023-09-19T15:17:36;21.20;99.90
8332;DHT22;4203;48.144;14.118;2023-09-19T15:20:04;21.10;99.90
8332;DHT22;4203;48.144;14.118;2023-09-19T15:22:32;21.00;99.90
8332;DHT22;4203;48.144;14.118;2023-09-19T15:25:00;20.90;99.90
8332;DHT22;4203;48.144;14.118;2023-09-19T15:27:29;20.70;99.90
8332;DHT22;4203;48.144;14.118;2023-09-19T15:29:58;20.60;99.90
8332;DHT22;4203;48.144;14.118;2023-09-19T15:32:26;20.50;99.90
8332;DHT22;4203;48.144;14.118;2023-09-19T15:34:54;20.40;99.90
8332;DHT22;4203;48.144;14.118;2023-09-19T15:37:22;20.30;99.90
8332;DHT22;4203;48.144;14.118;2023-09-19T15:39:49;20.20;99.90
8332;DHT22;4203;48.144;14.118;2023-09-19T15:42:18;20.20;99.90
8332;DHT22;4203;48.144;14.118;2023-09-19T15:44:45;20.20;99.90
8332;DHT22;4203;48.144;14.118;2023-09-19T15:47:15;20.10;99.90
8332;DHT22;4203;48.144;14.118;2023-09-19T15:49:42;20.00;99.90
8332;DHT22;4203;48.144;14.118;2023-09-19T15:52:11;20.00;99.90
8332;DHT22;4203;48.144;14.118;2023-09-19T15:54:38;19.90;99.90
8332;DHT22;4203;48.144;14.118;2023-09-19T15:57:10;19.80;99.90
8332;DHT22;4203;48.144;14.118;2023-09-19T15:59:38;19.70;99.90
8332;DHT22;4203;48.144;14.118;2023-09-19T16:02:05;19.70;99.90
8332;DHT22;4203;48.144;14.118;2023-09-19T16:04:33;19.70;99.90
8332;DHT22;4203;48.144;14.118;2023-09-19T16:07:00;19.60;99.90
8332;DHT22;4203;48.144;14.118;2023-09-19T16:09:29;19.50;99.90
8332;DHT22;4203;48.144;14.118;2023-09-19T16:11:56;19.40;99.90